Time;durP1;ratioP1;P1;durP2;ratioP2;P2;SDS_P1;SDS_P2;PMS_P1;PMS_P2;Temp;Humidity;BMP_temperature;BMP_pressure;BME280_temperature;BME280_humidity;BME280_pressure;Samples;Min_cycle;Max_cycle;Signal;HPM_P1;HPM_P2
2024/03/26 00:00:06;;;;;;;54.20;38.00;;;;;;;3.18;100.00;98128.64;109563;1251;59779;-78
2024/03/26 00:02:33;;;;;;;50.90;35.60;;;;;;;3.11;100.00;98129.85;109594;1250;59684;-81
2024/03/26 00:05:00;;;;;;;54.60;38.20;;;;;;;3.05;100.00;98129.45;109603;1250;59940;-78
2024/03/26 00:07:26;;;;;;;53.80;37.40;;;;;;;3.00;100.00;98130.23;109567;1251;59816;-79
2024/03/26 00:09:52;;;;;;;60.10;42.10;;;;;;;2.93;100.00;98131.77;109586;1250;59840;-80
2024/03/26 00:12:19;;;;;;;56.90;44.70;;;;;;;2.86;100.00;98133.36;109588;1250;60107;-80
2024/03/26 00:14:46;;;;;;;61.90;47.30;;;;;;;2.79;100.00;98130.91;109597;1250;59768;-80
2024/03/26 00:17:13;;;;;;;63.60;46.50;;;;;;;2.73;100.00;98133.14;109614;1250;66761;-81
2024/03/26 00:19:39;;;;;;;63.50;47.60;;;;;;;2.65;100.00;98136.69;109614;1250;60330;-80
2024/03/26 00:22:06;;;;;;;77.00;52.70;;;;;;;2.58;100.00;98137.92;109610;1250;59813;-80
2024/03/26 00:24:32;;;;;;;74.40;54.50;;;;;;;2.53;100.00;98134.31;109594;1251;60037;-80
2024/03/26 00:27:03;;;;;;;71.30;51.60;;;;;;;2.48;100.00;98134.17;109371;1250;59831;-82
2024/03/26 00:29:33;;;;;;;73.40;52.20;;;;;;;2.43;100.00;98136.02;109432;1250;67680;-80
2024/03/26 00:31:59;;;;;;;78.00;52.50;;;;;;;2.38;100.00;98138.02;109614;1250;59939;-81
2024/03/26 00:34:25;;;;;;;68.70;52.00;;;;;;;2.32;100.00;98138.44;109607;1250;59856;-79
2024/03/26 00:36:52;;;;;;;70.90;52.80;;;;;;;2.28;100.00;98133.73;109599;1250;59769;-80
2024/03/26 00:39:18;;;;;;;69.10;52.50;;;;;;;2.23;100.00;98135.03;109455;1250;59900;-80
2024/03/26 00:41:45;;;;;;;65.40;50.30;;;;;;;2.18;100.00;98136.66;109617;1250;60184;-79
2024/03/26 00:44:11;;;;;;;67.50;51.10;;;;;;;2.13;100.00;98136.70;109637;1250;59876;-80
2024/03/26 00:46:37;;;;;;;66.20;48.10;;;;;;;2.09;100.00;98138.33;109617;1250;59889;-80
2024/03/26 00:49:04;;;;;;;67.60;50.00;;;;;;;2.01;100.00;98138.52;109643;1250;59918;-80
2024/03/26 00:51:30;;;;;;;73.80;53.70;;;;;;;1.93;100.00;98136.76;109275;1254;60242;-81
2024/03/26 00:53:57;;;;;;;73.70;55.20;;;;;;;1.87;100.00;98139.99;109303;1254;59893;-80
2024/03/26 00:56:23;;;;;;;72.20;52.10;;;;;;;1.82;100.00;98142.14;109285;1254;59894;-80
2024/03/26 00:58:49;;;;;;;70.00;53.90;;;;;;;1.77;100.00;98136.25;109091;1254;59815;-78
2024/03/26 01:01:16;;;;;;;71.80;51.40;;;;;;;1.72;100.00;98135.92;109291;1254;60231;-80
2024/03/26 01:03:42;;;;;;;72.90;53.50;;;;;;;1.70;100.00;98136.75;109266;1254;60581;-79
2024/03/26 01:06:08;;;;;;;66.70;49.50;;;;;;;1.69;100.00;98139.26;109263;1254;59824;-78
2024/03/26 01:08:35;;;;;;;70.50;51.60;;;;;;;1.63;100.00;98137.74;109292;1254;59904;-80
2024/03/26 01:11:01;;;;;;;66.20;50.10;;;;;;;1.57;100.00;98135.94;109233;1254;59993;-81
2024/03/26 01:13:28;;;;;;;77.50;52.70;;;;;;;1.51;100.00;98137.58;109251;1255;59922;-80
2024/03/26 01:15:54;;;;;;;68.90;51.10;;;;;;;1.44;100.00;98139.29;109270;1254;59966;-80
2024/03/26 01:18:21;;;;;;;73.20;52.40;;;;;;;1.38;100.00;98136.59;109322;1254;59816;-80
2024/03/26 01:20:47;;;;;;;68.30;49.90;;;;;;;1.32;100.00;98128.80;109262;1254;59977;-80
2024/03/26 01:23:13;;;;;;;69.00;48.30;;;;;;;1.29;100.00;98129.77;109550;1250;60099;-78
2024/03/26 01:25:40;;;;;;;73.30;52.60;;;;;;;1.25;100.00;98129.26;109596;1250;59698;-80
2024/03/26 01:28:06;;;;;;;72.90;51.60;;;;;;;1.21;100.00;98129.30;109493;1250;60194;-81
2024/03/26 01:30:33;;;;;;;71.30;51.90;;;;;;;1.17;100.00;98122.98;109640;1250;59776;-80
2024/03/26 01:32:59;;;;;;;80.30;56.40;;;;;;;1.17;100.00;98118.92;109601;1250;59847;-81
2024/03/26 01:35:26;;;;;;;86.00;62.80;;;;;;;1.15;100.00;98121.48;109550;1250;59912;-79
2024/03/26 01:37:53;;;;;;;89.30;64.60;;;;;;;1.14;100.00;98121.19;109591;1250;59797;-80
2024/03/26 01:40:22;;;;;;;88.50;63.90;;;;;;;1.10;100.00;98118.21;109635;1250;59870;-79
2024/03/26 01:42:49;;;;;;;79.20;58.70;;;;;;;1.08;100.00;98121.60;109383;1249;66550;-79
2024/03/26 01:45:15;;;;;;;78.90;58.40;;;;;;;1.02;100.00;98123.60;109562;1250;60070;-79
2024/03/26 01:47:42;;;;;;;74.70;53.80;;;;;;;0.95;100.00;98128.43;109555;1250;60096;-79
2024/03/26 01:50:14;;;;;;;72.80;54.80;;;;;;;0.90;100.00;98135.82;109438;1254;59774;-80
2024/03/26 01:52:42;;;;;;;88.20;60.80;;;;;;;0.83;100.00;98135.06;109582;1250;59791;-78
2024/03/26 01:55:10;;;;;;;87.80;61.40;;;;;;;0.77;100.00;98136.02;109581;1250;66879;-79
2024/03/26 01:57:36;;;;;;;78.80;56.60;;;;;;;0.73;100.00;98136.53;109636;1250;67764;-80
2024/03/26 02:00:04;;;;;;;75.20;55.50;;;;;;;0.71;100.00;98136.63;109656;1250;62713;-78
2024/03/26 02:02:30;;;;;;;73.60;53.20;;;;;;;0.66;100.00;98135.44;109602;1250;59760;-80
2024/03/26 02:04:56;;;;;;;71.50;52.40;;;;;;;0.61;100.00;98137.20;109358;1250;59902;-79
2024/03/26 02:07:23;;;;;;;75.10;52.40;;;;;;;0.58;100.00;98137.86;109653;1250;60023;-80
2024/03/26 02:09:49;;;;;;;76.50;54.20;;;;;;;0.54;100.00;98133.64;109683;1250;59822;-80
2024/03/26 02:12:15;;;;;;;71.20;54.00;;;;;;;0.54;100.00;98126.84;109361;1250;60100;-81
2024/03/26 02:14:42;;;;;;;73.70;53.20;;;;;;;0.58;100.00;98126.98;109616;1250;59806;-80
2024/03/26 02:17:08;;;;;;;67.20;51.50;;;;;;;0.63;100.00;98129.42;109620;1250;59877;-79
2024/03/26 02:19:35;;;;;;;74.40;54.20;;;;;;;0.61;100.00;98127.92;109542;1251;60003;-79
2024/03/26 02:22:01;;;;;;;71.40;53.60;;;;;;;0.57;100.00;98126.34;109630;1250;59738;-79
2024/03/26 02:24:31;;;;;;;68.20;52.20;;;;;;;0.54;100.00;98122.97;109355;1250;59922;-79
2024/03/26 02:26:59;;;;;;;69.90;52.00;;;;;;;0.53;100.00;98125.83;109544;1250;60105;-81
2024/03/26 02:29:25;;;;;;;70.60;52.60;;;;;;;0.52;100.00;98132.69;109591;1250;59746;-80
2024/03/26 02:31:52;;;;;;;66.70;49.50;;;;;;;0.46;100.00;98126.59;109588;1250;65579;-80
2024/03/26 02:34:18;;;;;;;68.70;50.90;;;;;;;0.45;100.00;98129.26;109613;1250;60093;-80
2024/03/26 02:36:45;;;;;;;67.50;51.70;;;;;;;0.43;100.00;98132.14;109319;1250;59923;-79
2024/03/26 02:39:11;;;;;;;66.60;52.30;;;;;;;0.40;100.00;98133.33;109554;1250;59788;-81
2024/03/26 02:41:38;;;;;;;74.00;52.70;;;;;;;0.35;100.00;98130.36;109364;1250;60064;-82
2024/03/26 02:44:05;;;;;;;65.50;50.20;;;;;;;0.34;100.00;98133.38;109614;1250;66918;-80
2024/03/26 02:46:31;;;;;;;66.30;50.30;;;;;;;0.32;100.00;98136.42;109516;1251;59920;-79
2024/03/26 02:48:58;;;;;;;60.90;46.80;;;;;;;0.29;100.00;98139.34;109577;1250;60043;-79
2024/03/26 02:51:24;;;;;;;67.10;50.30;;;;;;;0.27;100.00;98141.55;109619;1250;59822;-79
2024/03/26 02:53:51;;;;;;;72.80;52.80;;;;;;;0.25;100.00;98141.77;109526;1250;59857;-78
2024/03/26 02:56:17;;;;;;;71.40;53.30;;;;;;;0.23;100.00;98136.95;109622;1250;59739;-80
2024/03/26 02:58:43;;;;;;;64.80;51.00;;;;;;;0.22;100.00;98139.80;109563;1252;59748;-80
2024/03/26 03:01:12;;;;;;;66.90;51.30;;;;;;;0.17;100.00;98143.64;109598;1250;59848;-80
2024/03/26 03:03:38;;;;;;;68.90;51.00;;;;;;;0.15;100.00;98144.08;109504;1250;59830;-80
2024/03/26 03:06:07;;;;;;;68.40;50.20;;;;;;;0.14;100.00;98143.41;109611;1253;59734;-80
2024/03/26 03:08:34;;;;;;;70.30;52.00;;;;;;;0.13;100.00;98141.35;109630;1250;66665;-80
2024/03/26 03:11:01;;;;;;;79.10;56.90;;;;;;;0.15;100.00;98134.98;109559;1250;60118;-79
2024/03/26 03:13:27;;;;;;;82.90;60.50;;;;;;;0.24;100.00;98135.71;109495;1250;63732;-79
2024/03/26 03:15:54;;;;;;;80.30;58.50;;;;;;;0.33;100.00;98135.54;109595;1250;60091;-81
2024/03/26 03:18:20;;;;;;;84.50;61.40;;;;;;;0.40;100.00;98134.38;109632;1250;59804;-79
2024/03/26 03:20:47;;;;;;;82.30;61.50;;;;;;;0.45;100.00;98132.23;109598;1250;59778;-79
2024/03/26 03:23:13;;;;;;;83.80;59.90;;;;;;;0.50;100.00;98130.33;109626;1250;59823;-81
2024/03/26 03:25:40;;;;;;;84.30;62.50;;;;;;;0.54;100.00;98127.15;109611;1250;64243;-79
2024/03/26 03:28:07;;;;;;;82.90;59.50;;;;;;;0.57;100.00;98121.98;107271;1250;1002854;-83
2024/03/26 03:30:34;;;;;;;84.70;61.50;;;;;;;0.60;100.00;98118.20;109591;1250;60261;-80
2024/03/26 03:33:00;;;;;;;78.60;58.80;;;;;;;0.61;100.00;98117.08;109585;1250;59776;-79
2024/03/26 03:35:27;;;;;;;79.60;58.10;;;;;;;0.63;100.00;98113.50;109549;1250;60068;-80
2024/03/26 03:37:53;;;;;;;80.10;59.30;;;;;;;0.64;100.00;98114.69;109593;1250;59837;-80
2024/03/26 03:40:19;;;;;;;77.30;57.70;;;;;;;0.63;100.00;98117.87;109359;1251;59891;-81
2024/03/26 03:42:46;;;;;;;73.70;54.80;;;;;;;0.61;100.00;98119.73;109598;1250;59702;-80
2024/03/26 03:45:12;;;;;;;78.30;55.60;;;;;;;0.58;100.00;98124.38;109603;1250;59942;-80
2024/03/26 03:47:39;;;;;;;73.60;55.80;;;;;;;0.56;100.00;98123.23;109627;1250;59802;-79
2024/03/26 03:50:05;;;;;;;78.10;56.20;;;;;;;0.52;100.00;98123.09;109600;1250;59870;-80
2024/03/26 03:52:32;;;;;;;72.90;53.70;;;;;;;0.48;100.00;98124.29;109581;1250;60078;-80
2024/03/26 03:54:58;;;;;;;72.10;53.30;;;;;;;0.43;100.00;98124.64;109611;1250;59804;-80
2024/03/26 03:57:24;;;;;;;72.10;52.60;;;;;;;0.39;100.00;98121.46;109499;1250;60813;-80
2024/03/26 03:59:51;;;;;;;68.30;51.50;;;;;;;0.37;100.00;98121.72;109609;1250;60086;-81
2024/03/26 04:02:17;;;;;;;75.70;55.20;;;;;;;0.34;100.00;98122.55;109644;1250;60008;-79
2024/03/26 04:04:43;;;;;;;74.50;55.20;;;;;;;0.30;100.00;98120.77;109566;1250;59821;-80
2024/03/26 04:07:10;;;;;;;76.40;55.50;;;;;;;0.27;100.00;98120.73;109601;1250;59801;-82
2024/03/26 04:09:36;;;;;;;66.90;49.40;;;;;;;0.23;100.00;98121.06;109614;1250;59787;-80
2024/03/26 04:12:03;;;;;;;62.90;48.20;;;;;;;0.22;100.00;98123.21;109597;1250;60218;-80
2024/03/26 04:14:29;;;;;;;67.00;49.80;;;;;;;0.20;100.00;98122.05;109561;1250;60123;-81
2024/03/26 04:16:55;;;;;;;66.60;49.40;;;;;;;0.17;100.00;98123.37;109606;1250;60111;-81
2024/03/26 04:19:22;;;;;;;65.70;48.70;;;;;;;0.15;100.00;98121.00;109564;1251;59931;-79
2024/03/26 04:21:48;;;;;;;63.00;47.00;;;;;;;0.15;100.00;98117.00;109620;1250;59893;-80
2024/03/26 04:24:15;;;;;;;53.20;41.20;;;;;;;0.14;100.00;98118.96;109603;1250;59822;-80
2024/03/26 04:26:41;;;;;;;55.10;41.00;;;;;;;0.13;100.00;98111.65;109587;1250;59823;-80
2024/03/26 04:29:08;;;;;;;56.60;42.40;;;;;;;0.15;100.00;98109.86;109611;1250;59783;-80
2024/03/26 04:31:34;;;;;;;59.90;43.70;;;;;;;0.18;100.00;98111.65;109633;1250;59938;-80
2024/03/26 04:34:00;;;;;;;54.70;41.20;;;;;;;0.20;100.00;98107.89;109469;1250;59839;-80
2024/03/26 04:36:27;;;;;;;54.50;42.10;;;;;;;0.21;100.00;98109.60;109558;1250;60114;-81
2024/03/26 04:38:53;;;;;;;59.50;43.50;;;;;;;0.23;100.00;98110.95;109582;1250;59788;-80
2024/03/26 04:41:20;;;;;;;57.90;43.60;;;;;;;0.24;100.00;98113.15;109599;1251;59730;-80
2024/03/26 04:43:47;;;;;;;58.50;43.70;;;;;;;0.26;100.00;98116.59;109587;1250;59839;-79
2024/03/26 04:46:13;;;;;;;59.90;43.00;;;;;;;0.27;100.00;98115.84;109592;1250;59823;-79
2024/03/26 04:48:39;;;;;;;58.70;42.00;;;;;;;0.29;100.00;98116.83;109501;1250;60021;-80
2024/03/26 04:51:06;;;;;;;60.20;43.70;;;;;;;0.31;100.00;98118.64;109667;1250;59851;-80
2024/03/26 04:53:32;;;;;;;55.60;42.90;;;;;;;0.32;100.00;98119.67;109751;1250;59720;-80
2024/03/26 04:55:58;;;;;;;58.00;44.80;;;;;;;0.37;100.00;98121.05;109930;1250;60483;-79
2024/03/26 04:58:25;;;;;;;60.70;46.40;;;;;;;0.63;100.00;98123.66;109640;1250;60031;-81
2024/03/26 05:00:51;;;;;;;64.50;49.40;;;;;;;0.98;100.00;98119.40;109607;1250;59863;-78
2024/03/26 05:03:17;;;;;;;60.50;48.30;;;;;;;1.33;100.00;98116.48;109581;1250;60128;-79
2024/03/26 05:05:44;;;;;;;62.50;48.60;;;;;;;1.65;100.00;98111.95;109602;1251;59865;-80
2024/03/26 05:08:10;;;;;;;60.70;48.60;;;;;;;1.97;100.00;98108.21;109660;1250;59779;-83
2024/03/26 05:10:37;;;;;;;52.20;43.20;;;;;;;2.25;100.00;98105.10;109608;1250;59800;-81
2024/03/26 05:13:04;;;;;;;48.70;38.20;;;;;;;2.48;100.00;98103.85;109655;1250;59735;-78
2024/03/26 05:15:33;;;;;;;46.50;39.10;;;;;;;2.67;100.00;98108.71;109612;1250;59855;-81
2024/03/26 05:17:59;;;;;;;42.40;37.00;;;;;;;2.86;100.00;98106.54;109625;1250;59747;-80
2024/03/26 05:20:26;;;;;;;43.70;36.80;;;;;;;3.08;100.00;98106.67;109581;1250;60220;-80
2024/03/26 05:22:53;;;;;;;41.60;34.70;;;;;;;3.28;100.00;98110.02;109613;1250;66839;-81
2024/03/26 05:25:20;;;;;;;34.90;31.20;;;;;;;3.48;100.00;98108.99;109549;1250;59818;-79
2024/03/26 05:27:46;;;;;;;38.80;32.10;;;;;;;3.62;100.00;98108.77;109336;1250;63754;-79
2024/03/26 05:30:13;;;;;;;37.10;31.90;;;;;;;3.72;100.00;98111.95;109596;1250;60036;-79
2024/03/26 05:32:39;;;;;;;33.40;29.80;;;;;;;3.95;100.00;98103.88;109668;1250;59778;-80
2024/03/26 05:35:07;;;;;;;33.10;27.80;;;;;;;4.19;100.00;98098.30;109581;1250;74740;-79
2024/03/26 05:37:36;;;;;;;28.60;25.60;;;;;;;4.40;100.00;98103.48;109648;1250;60304;-81
2024/03/26 05:40:03;;;;;;;29.00;25.80;;;;;;;4.64;100.00;98101.41;109581;1250;63556;-81
2024/03/26 05:42:29;;;;;;;25.90;23.10;;;;;;;4.87;100.00;98099.94;109585;1250;59762;-80
2024/03/26 05:44:56;;;;;;;25.50;22.60;;;;;;;5.05;100.00;98099.94;109591;1250;59825;-80
2024/03/26 05:47:22;;;;;;;26.80;23.90;;;;;;;5.14;100.00;98102.93;109580;1250;59730;-79
2024/03/26 05:49:48;;;;;;;28.10;25.10;;;;;;;5.18;100.00;98101.80;109639;1250;60009;-79
2024/03/26 05:52:15;;;;;;;28.20;25.20;;;;;;;5.26;100.00;98100.45;109527;1250;60149;-81
2024/03/26 05:54:42;;;;;;;30.10;26.70;;;;;;;5.33;100.00;98105.29;109374;1250;59851;-80
2024/03/26 05:57:08;;;;;;;27.90;24.80;;;;;;;5.39;100.00;98108.13;109544;1250;59835;-80
2024/03/26 05:59:34;;;;;;;28.40;25.40;;;;;;;5.45;100.00;98109.36;109601;1250;59777;-80
2024/03/26 06:02:01;;;;;;;27.40;24.50;;;;;;;5.34;100.00;98107.86;109664;1250;59807;-81
2024/03/26 06:04:27;;;;;;;28.60;24.40;;;;;;;5.06;100.00;98111.66;109588;1251;59843;-80
2024/03/26 06:06:54;;;;;;;26.70;23.60;;;;;;;4.84;100.00;98111.00;109598;1250;59812;-81
2024/03/26 06:09:20;;;;;;;26.50;23.70;;;;;;;4.66;100.00;98115.38;109623;1253;59788;-80
2024/03/26 06:11:47;;;;;;;27.60;24.40;;;;;;;4.55;100.00;98112.13;109655;1250;59856;-80
2024/03/26 06:14:13;;;;;;;28.40;22.80;;;;;;;4.56;100.00;98109.44;109684;1250;60050;-82
2024/03/26 06:16:39;;;;;;;27.60;23.20;;;;;;;4.70;100.00;98107.73;109378;1250;59920;-80
2024/03/26 06:19:06;;;;;;;26.40;22.90;;;;;;;4.87;100.00;98106.21;109537;1250;59820;-81
2024/03/26 06:21:32;;;;;;;25.70;22.20;;;;;;;5.01;100.00;98104.34;109609;1250;59820;-81
2024/03/26 06:23:58;;;;;;;24.10;20.80;;;;;;;5.11;100.00;98103.23;109601;1251;59930;-79
2024/03/26 06:26:25;;;;;;;23.70;20.40;;;;;;;5.18;100.00;98103.89;109491;1251;60055;-80
2024/03/26 06:28:51;;;;;;;28.40;25.50;;;;;;;5.10;100.00;98100.48;109244;1251;59810;-82
2024/03/26 06:31:18;;;;;;;23.10;20.70;;;;;;;4.99;100.00;98102.04;109511;1251;60093;-81
2024/03/26 06:33:45;;;;;;;25.60;21.60;;;;;;;4.88;100.00;98100.23;109515;1251;59830;-81
2024/03/26 06:36:11;;;;;;;24.50;21.90;;;;;;;4.78;100.00;98103.41;109502;1251;60071;-79
2024/03/26 06:38:38;;;;;;;26.70;23.80;;;;;;;4.70;100.00;98105.61;109570;1251;59862;-81
2024/03/26 06:41:05;;;;;;;30.00;23.00;;;;;;;4.62;100.00;98105.94;109540;1251;59796;-79
2024/03/26 06:43:32;;;;;;;23.80;20.70;;;;;;;4.59;100.00;98111.21;109498;1251;60002;-81
2024/03/26 06:45:58;;;;;;;25.90;23.20;;;;;;;4.56;100.00;98107.85;109547;1251;59761;-80
2024/03/26 06:48:24;;;;;;;24.70;22.00;;;;;;;4.53;100.00;98104.16;109489;1251;59821;-73
2024/03/26 06:50:52;;;;;;;23.40;21.00;;;;;;;4.53;100.00;98106.08;109459;1251;59976;-76
2024/03/26 06:53:18;;;;;;;30.30;25.90;;;;;;;4.57;100.00;98107.95;109492;1250;64056;-74
2024/03/26 06:55:45;;;;;;;23.50;20.00;;;;;;;4.62;100.00;98108.89;108807;1250;1002415;-77
2024/03/26 06:58:11;;;;;;;25.10;22.50;;;;;;;4.65;100.00;98107.52;109625;1250;59847;-77
2024/03/26 07:00:37;;;;;;;22.00;19.60;;;;;;;4.69;100.00;98107.85;109567;1251;59902;-77
2024/03/26 07:03:04;;;;;;;20.40;17.20;;;;;;;4.72;100.00;98105.17;109542;1250;60024;-80
2024/03/26 07:05:30;;;;;;;22.80;20.20;;;;;;;4.73;100.00;98101.92;109531;1250;59944;-78
2024/03/26 07:07:57;;;;;;;22.10;19.90;;;;;;;4.81;100.00;98097.60;109572;1250;59778;-77
2024/03/26 07:10:23;;;;;;;19.50;17.40;;;;;;;4.89;100.00;98098.36;109631;1250;59841;-76
2024/03/26 07:12:49;;;;;;;18.20;16.30;;;;;;;4.95;100.00;98098.42;109301;1251;60150;-71
2024/03/26 07:15:16;;;;;;;19.60;17.00;;;;;;;5.00;100.00;98100.39;109527;1251;59875;-77
2024/03/26 07:17:42;;;;;;;17.90;16.00;;;;;;;5.08;100.00;98096.77;109520;1251;59794;-76
2024/03/26 07:20:09;;;;;;;20.30;17.30;;;;;;;5.16;100.00;98098.77;109464;1251;59963;-83
2024/03/26 07:22:37;;;;;;;21.30;17.60;;;;;;;5.25;100.00;98095.93;109538;1251;60731;-81
2024/03/26 07:25:04;;;;;;;20.40;17.80;;;;;;;5.33;100.00;98095.63;109527;1251;66931;-80
2024/03/26 07:27:30;;;;;;;28.90;25.80;;;;;;;5.41;100.00;98091.41;109479;1251;59817;-84
2024/03/26 07:29:59;;;;;;;25.30;22.40;;;;;;;5.49;100.00;98090.04;109498;1251;59837;-82
2024/03/26 07:32:26;;;;;;;18.70;16.80;;;;;;;5.59;100.00;98091.76;109504;1251;60195;-81
2024/03/26 07:34:52;;;;;;;25.70;23.20;;;;;;;5.64;100.00;98090.36;109474;1251;59971;-80
2024/03/26 07:37:19;;;;;;;17.00;15.30;;;;;;;5.69;100.00;98088.67;109376;1255;60155;-76
2024/03/26 07:39:45;;;;;;;18.30;16.30;;;;;;;5.72;100.00;98090.95;109499;1251;60219;-79
2024/03/26 07:42:12;;;;;;;17.00;15.20;;;;;;;5.80;100.00;98088.16;109264;1251;60007;-78
2024/03/26 07:44:40;;;;;;;20.90;18.80;;;;;;;5.91;100.00;98086.23;109477;1251;59877;-79
2024/03/26 07:47:07;;;;;;;17.10;15.30;;;;;;;6.03;100.00;98086.60;109628;1250;59657;-79
2024/03/26 07:49:33;;;;;;;16.70;15.10;;;;;;;6.13;100.00;98080.10;109632;1250;66816;-80
2024/03/26 07:51:59;;;;;;;17.60;14.10;;;;;;;6.26;100.00;98075.59;109613;1250;59809;-80
2024/03/26 07:54:25;;;;;;;20.80;14.40;;;;;;;6.35;100.00;98075.73;109631;1250;60260;-79
2024/03/26 07:56:52;;;;;;;17.60;14.60;;;;;;;6.46;100.00;98076.59;109714;1250;59747;-81
2024/03/26 07:59:18;;;;;;;17.10;13.90;;;;;;;6.60;100.00;98076.94;109743;1250;59829;-81
2024/03/26 08:01:45;;;;;;;16.10;13.30;;;;;;;6.71;100.00;98072.53;109673;1250;59738;-81
2024/03/26 08:04:11;;;;;;;14.20;12.40;;;;;;;6.80;100.00;98073.17;109641;1250;59832;-79
2024/03/26 08:06:37;;;;;;;17.80;14.60;;;;;;;6.88;100.00;98068.40;109620;1250;59936;-80
2024/03/26 08:09:03;;;;;;;16.80;15.10;;;;;;;6.98;100.00;98065.76;109291;1250;59915;-80
2024/03/26 08:11:30;;;;;;;15.80;13.40;;;;;;;7.13;100.00;98064.78;109666;1250;59940;-79
2024/03/26 08:13:56;;;;;;;15.50;13.20;;;;;;;7.22;100.00;98063.24;109616;1250;59848;-80
2024/03/26 08:16:23;;;;;;;15.20;13.50;;;;;;;7.31;100.00;98060.67;109564;1250;59911;-80
2024/03/26 08:18:49;;;;;;;18.40;14.80;;;;;;;7.40;100.00;98059.33;109589;1250;59764;-80
2024/03/26 08:21:15;;;;;;;15.50;13.70;;;;;;;7.53;100.00;98055.85;109699;1253;59837;-80
2024/03/26 08:23:41;;;;;;;16.40;12.80;;;;;;;7.66;100.00;98048.69;109623;1250;59813;-79
2024/03/26 08:26:08;;;;;;;15.70;12.40;;;;;;;7.77;100.00;98045.65;109668;1249;59859;-79
2024/03/26 08:28:35;;;;;;;14.10;11.30;;;;;;;7.84;100.00;98040.38;109686;1250;59840;-76
2024/03/26 08:31:01;;;;;;;11.90;10.70;;;;;;;7.90;100.00;98035.34;109647;1250;60119;-76
2024/03/26 08:33:27;;;;;;;11.70;10.50;;;;;;;7.96;100.00;98032.63;109627;1250;59779;-76
2024/03/26 08:35:54;;;;;;;11.20;10.10;;;;;;;8.03;100.00;98028.91;109581;1250;59779;-78
2024/03/26 08:38:20;;;;;;;12.70;10.60;;;;;;;8.10;100.00;98027.89;109637;1250;59797;-77
2024/03/26 08:40:47;;;;;;;11.60;10.40;;;;;;;8.15;100.00;98026.13;109600;1250;59893;-76
2024/03/26 08:43:13;;;;;;;12.40;10.30;;;;;;;8.17;100.00;98030.42;109684;1250;59770;-75
2024/03/26 08:45:39;;;;;;;11.50;10.30;;;;;;;8.19;100.00;98032.55;109610;1250;59762;-77
2024/03/26 08:48:06;;;;;;;12.80;10.00;;;;;;;8.23;100.00;98029.95;109695;1250;59787;-76
2024/03/26 08:50:34;;;;;;;12.30;10.00;;;;;;;8.34;100.00;98029.14;109660;1250;59807;-75
2024/03/26 08:53:00;;;;;;;14.60;10.90;;;;;;;8.50;100.00;98024.45;109672;1250;60108;-78
2024/03/26 08:55:28;;;;;;;10.10;9.10;;;;;;;8.62;100.00;98023.10;109605;1250;62917;-79
2024/03/26 08:57:54;;;;;;;9.70;8.70;;;;;;;8.69;100.00;98025.34;109599;1250;59758;-79
2024/03/26 09:00:21;;;;;;;12.90;10.60;;;;;;;8.78;100.00;98024.01;109660;1250;59867;-78
2024/03/26 09:02:47;;;;;;;11.70;9.90;;;;;;;8.91;100.00;98023.02;109631;1250;59878;-80
2024/03/26 09:05:13;;;;;;;8.80;8.00;;;;;;;9.02;100.00;98019.52;109613;1250;60631;-78
2024/03/26 09:07:40;;;;;;;11.10;9.00;;;;;;;9.08;100.00;98016.43;109652;1250;59809;-77
2024/03/26 09:10:07;;;;;;;14.10;10.30;;;;;;;9.13;100.00;98011.05;109590;1250;59770;-80
2024/03/26 09:12:52;;;;;;;13.10;9.90;;;;;;;9.26;100.00;98011.63;109373;1250;59857;-79
2024/03/26 09:15:19;;;;;;;10.40;9.40;;;;;;;9.43;100.00;98013.02;109521;1250;65697;-79
2024/03/26 09:17:45;;;;;;;13.90;9.90;;;;;;;9.55;100.00;98008.14;109614;1250;59767;-81
2024/03/26 09:20:12;;;;;;;12.50;10.50;;;;;;;9.69;100.00;98004.40;109623;1250;62862;-79
2024/03/26 09:22:38;;;;;;;9.30;7.90;;;;;;;9.82;100.00;98002.13;109652;1250;59904;-80
2024/03/26 09:25:05;;;;;;;9.10;7.30;;;;;;;9.92;100.00;98003.79;109646;1250;59838;-78
2024/03/26 09:27:31;;;;;;;8.80;7.90;;;;;;;9.98;100.00;98000.48;109648;1250;60396;-80
2024/03/26 09:29:57;;;;;;;7.30;6.60;;;;;;;10.09;100.00;97998.39;109646;1250;59987;-79
2024/03/26 09:32:24;;;;;;;8.00;7.30;;;;;;;10.19;100.00;97998.41;109603;1250;60194;-79
2024/03/26 09:34:50;;;;;;;10.30;8.80;;;;;;;10.23;100.00;97991.00;109592;1250;59756;-79
2024/03/26 09:37:16;;;;;;;26.80;18.10;;;;;;;10.34;100.00;97992.29;109671;1250;60023;-78
2024/03/26 09:39:45;;;;;;;9.20;8.20;;;;;;;10.45;100.00;97990.14;109690;1250;60471;-79
2024/03/26 09:42:12;;;;;;;29.50;19.70;;;;;;;10.51;100.00;97986.42;109629;1250;60733;-80
2024/03/26 09:44:40;;;;;;;17.00;14.80;;;;;;;10.62;100.00;97982.18;109639;1250;62840;-81
2024/03/26 09:47:07;;;;;;;10.40;9.10;;;;;;;10.77;100.00;97981.26;109638;1250;59817;-79
2024/03/26 09:49:34;;;;;;;8.70;7.80;;;;;;;10.93;100.00;97977.04;109596;1250;59670;-80
2024/03/26 09:52:01;;;;;;;9.70;8.10;;;;;;;11.06;100.00;97975.96;109673;1250;65600;-79
2024/03/26 09:54:29;;;;;;;10.50;8.10;;;;;;;11.17;100.00;97978.33;109630;1250;60001;-79
2024/03/26 09:56:55;;;;;;;8.10;7.30;;;;;;;11.25;100.00;97973.05;109609;1250;64025;-79
2024/03/26 09:59:22;;;;;;;9.90;7.60;;;;;;;11.31;100.00;97969.77;109585;1250;59810;-78
2024/03/26 10:01:54;;;;;;;9.30;6.80;;;;;;;11.43;100.00;97966.56;109530;1250;140662;-80
2024/03/26 10:04:20;;;;;;;9.00;7.60;;;;;;;11.50;100.00;97958.09;109629;1251;65527;-79
2024/03/26 10:06:47;;;;;;;7.50;6.60;;;;;;;11.64;100.00;97957.75;109652;1250;59750;-80
2024/03/26 10:09:15;;;;;;;6.40;5.60;;;;;;;11.78;100.00;97955.13;109659;1250;64266;-81
2024/03/26 10:11:41;;;;;;;12.70;6.60;;;;;;;11.90;100.00;97955.99;109601;1250;59774;-78
2024/03/26 10:14:09;;;;;;;8.30;6.50;;;;;;;11.99;100.00;97953.66;109607;1250;59845;-79
2024/03/26 10:16:41;;;;;;;5.90;5.30;;;;;;;12.11;100.00;97949.50;109646;1250;67320;-79
2024/03/26 10:19:08;;;;;;;5.70;3.90;;;;;;;12.24;100.00;97947.10;109520;1250;59794;-80
2024/03/26 10:21:34;;;;;;;4.90;4.10;;;;;;;12.38;100.00;97944.41;109627;1250;64133;-80
2024/03/26 10:24:01;;;;;;;6.40;4.50;;;;;;;12.49;100.00;97941.58;109613;1250;59826;-77
2024/03/26 10:26:27;;;;;;;3.80;3.20;;;;;;;12.57;100.00;97940.77;109318;1250;60734;-79
2024/03/26 10:28:54;;;;;;;3.20;2.90;;;;;;;12.66;100.00;97941.72;109656;1250;59740;-80
2024/03/26 10:31:21;;;;;;;8.50;6.90;;;;;;;12.77;100.00;97935.98;109532;1250;59894;-80
2024/03/26 10:33:49;;;;;;;4.00;3.30;;;;;;;12.85;100.00;97932.30;109617;1250;62852;-79
2024/03/26 10:36:16;;;;;;;4.10;3.60;;;;;;;12.85;100.00;97924.75;109626;1250;59832;-80
2024/03/26 10:38:45;;;;;;;4.40;3.10;;;;;;;12.96;100.00;97926.02;109660;1250;59633;-80
2024/03/26 10:41:23;;;;;;;3.50;2.70;;;;;;;13.14;100.00;97924.15;109525;1256;65754;-79
2024/03/26 10:43:52;;;;;;;3.00;2.70;;;;;;;13.29;100.00;97923.32;109238;1250;59806;-80
2024/03/26 10:46:20;;;;;;;2.30;2.10;;;;;;;13.43;100.00;97916.85;109643;1250;64086;-78
2024/03/26 10:48:46;;;;;;;2.60;1.60;;;;;;;13.56;100.00;97914.30;109561;1250;59843;-81
2024/03/26 10:51:13;;;;;;;1.40;1.30;;;;;;;13.69;100.00;97914.09;109473;1250;59845;-78
2024/03/26 10:53:40;;;;;;;2.00;1.40;;;;;;;13.78;100.00;97913.41;109610;1250;66891;-80
2024/03/26 10:56:06;;;;;;;1.50;1.40;;;;;;;13.79;100.00;97910.80;109627;1254;59765;-81
2024/03/26 10:58:33;;;;;;;2.10;1.30;;;;;;;13.80;100.00;97913.27;109435;1250;59904;-79
2024/03/26 11:01:03;;;;;;;1.20;1.10;;;;;;;13.85;100.00;97913.83;109667;1250;59765;-79
2024/03/26 11:03:31;;;;;;;1.60;1.40;;;;;;;13.91;100.00;97912.65;109658;1250;59953;-79
2024/03/26 11:05:58;;;;;;;1.70;1.20;;;;;;;13.97;100.00;97910.27;109645;1250;66579;-80